createdAt,value
2022-08-24T00:04:09.529Z,6.72
2022-08-24T00:08:37.969Z,6.75
2022-08-24T00:13:00.649Z,7.22
2022-08-24T00:17:22.949Z,7.82
2022-08-24T00:21:45.589Z,7.30
2022-08-24T00:26:08.669Z,7.25
2022-08-24T00:30:31.220Z,8.07
2022-08-24T00:34:58.957Z,7.28
2022-08-24T00:39:25.350Z,7.88
2022-08-24T00:43:56.409Z,8.07
2022-08-24T00:48:25.882Z,8.48
2022-08-24T00:52:57.029Z,8.48
2022-08-24T00:57:24.870Z,9.10
2022-08-24T01:01:48.030Z,10.48
2022-08-24T01:06:12.829Z,9.60
2022-08-24T01:10:41.589Z,10.77
2022-08-24T01:15:08.189Z,11.50
2022-08-24T01:19:44.208Z,10.70
2022-08-24T01:24:13.352Z,11.73
2022-08-24T01:28:37.389Z,10.82
2022-08-24T01:33:04.651Z,11.57
2022-08-24T01:37:27.068Z,11.68
2022-08-24T01:41:50.028Z,12.25
2022-08-24T01:46:12.396Z,12.52
2022-08-24T01:50:35.369Z,12.70
2022-08-24T01:54:58.060Z,12.82
2022-08-24T01:59:21.308Z,12.20
2022-08-24T02:03:44.130Z,13.02
2022-08-24T02:08:07.351Z,14.32
2022-08-24T02:12:30.028Z,13.32
2022-08-24T02:16:53.028Z,13.52
2022-08-24T02:21:22.209Z,13.32
2022-08-24T02:25:44.810Z,13.00
2022-08-24T02:30:08.708Z,13.77
2022-08-24T02:34:31.349Z,14.13
2022-08-24T02:38:58.313Z,14.07
2022-08-24T02:43:20.809Z,14.63
2022-08-24T02:47:43.449Z,13.48
2022-08-24T02:52:05.949Z,14.07
2022-08-24T02:56:31.988Z,14.30
2022-08-24T03:00:55.101Z,14.25
2022-08-24T03:05:18.058Z,15.13
2022-08-24T03:09:40.528Z,15.13
2022-08-24T03:14:03.455Z,14.45
2022-08-24T03:18:27.705Z,16.92
2022-08-24T03:22:51.009Z,16.83
2022-08-24T03:27:14.568Z,16.38
2022-08-24T03:31:37.888Z,16.77
2022-08-24T03:36:00.771Z,16.65
2022-08-24T03:40:24.519Z,16.42
2022-08-24T03:44:50.450Z,16.15
2022-08-24T03:49:15.129Z,16.48
2022-08-24T03:53:37.608Z,15.88
2022-08-24T03:58:05.728Z,17.45
2022-08-24T04:02:32.767Z,17.25
2022-08-24T04:06:55.608Z,16.67
2022-08-24T04:11:28.751Z,17.75
2022-08-24T04:15:53.268Z,17.55
2022-08-24T04:20:15.748Z,17.13
2022-08-24T04:24:38.128Z,18.13
2022-08-24T04:29:01.189Z,18.35
2022-08-24T04:33:24.728Z,18.10
2022-08-24T04:37:47.850Z,20.50
2022-08-24T04:42:12.462Z,18.85
2022-08-24T04:46:36.812Z,19.33
2022-08-24T04:51:05.129Z,18.20
2022-08-24T04:55:27.607Z,18.40
2022-08-24T04:59:50.549Z,16.02
2022-08-24T05:04:13.929Z,15.35
2022-08-24T05:08:36.409Z,13.95
2022-08-24T05:12:59.029Z,12.82
2022-08-24T05:17:21.508Z,11.38
2022-08-24T05:21:45.010Z,10.27
2022-08-24T05:26:26.128Z,9.65
2022-08-24T05:30:51.064Z,8.85
2022-08-24T05:35:13.761Z,7.57
2022-08-24T05:39:37.048Z,7.38
2022-08-24T05:44:06.430Z,5.68
2022-08-24T05:48:30.110Z,6.82
2022-08-24T05:52:55.528Z,6.50
2022-08-24T05:57:18.589Z,6.40
2022-08-24T06:01:55.243Z,6.18
2022-08-24T06:06:19.668Z,4.90
2022-08-24T06:10:50.128Z,4.90
2022-08-24T06:15:13.669Z,4.90
2022-08-24T06:19:36.952Z,4.65
2022-08-24T06:24:00.748Z,4.80
2022-08-24T06:28:23.688Z,4.72
2022-08-24T06:32:46.089Z,5.18
2022-08-24T06:37:29.481Z,5.13
2022-08-24T06:41:52.509Z,5.45
2022-08-24T06:46:27.433Z,6.60
2022-08-24T06:50:54.769Z,5.35
2022-08-24T06:55:17.380Z,6.40
2022-08-24T06:59:40.609Z,6.32
2022-08-24T07:04:03.869Z,6.88
2022-08-24T07:08:50.089Z,7.15
2022-08-24T07:13:14.929Z,7.53
2022-08-24T07:17:37.452Z,7.05
2022-08-24T07:22:00.118Z,7.30
2022-08-24T07:26:25.865Z,7.63
2022-08-24T07:30:49.343Z,7.07
2022-08-24T07:35:14.179Z,7.55
2022-08-24T07:39:36.685Z,7.18
2022-08-24T07:44:00.345Z,6.95
2022-08-24T07:48:22.745Z,7.47
2022-08-24T07:52:47.085Z,6.82
2022-08-24T07:57:09.845Z,6.90
2022-08-24T08:01:34.444Z,6.25
2022-08-24T08:06:16.005Z,6.43
2022-08-24T08:10:40.825Z,5.82
2022-08-24T08:15:04.351Z,5.22
2022-08-24T08:19:27.885Z,5.78
2022-08-24T08:24:08.967Z,5.75
2022-08-24T08:28:36.384Z,5.57
2022-08-24T08:33:00.407Z,5.00
2022-08-24T08:37:23.271Z,5.38
2022-08-24T08:42:21.645Z,4.05
2022-08-24T08:47:07.804Z,3.90
2022-08-24T08:51:40.145Z,5.05
2022-08-24T08:56:41.285Z,4.57
2022-08-24T09:02:02.209Z,3.67
2022-08-24T09:06:44.905Z,3.33
2022-08-24T09:11:50.786Z,3.83
2022-08-24T09:17:42.626Z,3.55
2022-08-24T09:22:21.996Z,3.80
2022-08-24T09:27:24.266Z,3.50
2022-08-24T09:32:18.052Z,3.92
2022-08-24T09:37:31.907Z,3.75
2022-08-24T09:42:27.906Z,3.80
2022-08-24T09:46:59.478Z,3.33
2022-08-24T09:52:09.706Z,2.95
2022-08-24T09:57:11.658Z,3.00
2022-08-24T10:01:51.326Z,2.80
2022-08-24T10:06:25.685Z,2.95
2022-08-24T10:11:02.906Z,3.00
2022-08-24T10:15:48.265Z,2.75
2022-08-24T10:20:52.584Z,2.58
2022-08-24T10:26:12.404Z,3.15
2022-08-24T10:31:12.935Z,2.60
2022-08-24T10:35:40.485Z,3.00
2022-08-24T10:40:44.710Z,3.15
2022-08-24T10:45:50.477Z,3.28
2022-08-24T10:50:56.646Z,3.75
2022-08-24T10:55:28.964Z,3.95
2022-08-24T11:00:18.204Z,3.83
2022-08-24T11:05:01.052Z,4.30
2022-08-24T11:09:23.424Z,4.55
2022-08-24T11:14:00.530Z,4.25
2022-08-24T11:18:23.984Z,4.60
2022-08-24T11:23:16.025Z,4.10
2022-08-24T11:27:43.904Z,4.13
2022-08-24T11:32:06.524Z,4.07
2022-08-24T11:36:34.225Z,4.43
2022-08-24T11:41:26.185Z,4.32
2022-08-24T11:45:57.384Z,4.30
2022-08-24T11:50:31.254Z,4.35
2022-08-24T11:55:09.077Z,4.22
2022-08-24T12:00:13.784Z,4.03
2022-08-24T12:05:08.764Z,4.53
2022-08-24T12:09:55.864Z,4.57
2022-08-24T12:14:33.900Z,4.50
2022-08-24T12:18:59.064Z,4.50
2022-08-24T12:23:32.057Z,4.60
2022-08-24T12:27:57.604Z,4.55
2022-08-24T12:32:29.264Z,3.70
2022-08-24T12:37:41.463Z,4.10
2022-08-24T12:42:25.725Z,4.43
2022-08-24T12:46:54.773Z,4.35
2022-08-24T12:52:10.369Z,4.35
2022-08-24T12:56:54.576Z,4.47
2022-08-24T13:01:20.655Z,5.22
2022-08-24T13:05:59.064Z,5.63
2022-08-24T13:10:24.953Z,5.47
2022-08-24T13:14:52.331Z,5.13
2022-08-24T13:19:42.704Z,5.53
2022-08-24T13:24:31.244Z,5.60
2022-08-24T13:28:56.828Z,6.03
2022-08-24T13:33:50.165Z,5.57
2022-08-24T13:38:40.903Z,5.65
2022-08-24T13:43:13.243Z,6.53
2022-08-24T13:47:56.964Z,6.03
2022-08-24T13:52:32.502Z,5.95
2022-08-24T13:57:08.984Z,6.00
2022-08-24T14:02:27.896Z,5.40
2022-08-24T14:07:19.765Z,5.32
2022-08-24T14:12:09.404Z,6.18
2022-08-24T14:17:26.404Z,5.88
2022-08-24T14:22:17.047Z,5.60
2022-08-24T14:26:43.584Z,5.95
2022-08-24T14:31:31.160Z,6.22
2022-08-24T14:36:15.291Z,5.97
2022-08-24T14:41:08.704Z,7.95
2022-08-24T14:46:11.300Z,5.68
2022-08-24T14:51:16.846Z,5.43
2022-08-24T14:56:17.082Z,5.53
2022-08-24T15:01:10.428Z,6.50
2022-08-24T15:05:32.841Z,5.57
2022-08-24T15:09:57.304Z,6.13
2022-08-24T15:14:46.464Z,6.00
2022-08-24T15:19:41.651Z,5.82
2022-08-24T15:24:19.164Z,5.43
2022-08-24T15:28:56.391Z,6.15
2022-08-24T15:33:21.120Z,5.63
2022-08-24T15:37:44.144Z,6.10
2022-08-24T15:42:15.005Z,5.97
2022-08-24T15:46:48.284Z,5.55
2022-08-24T15:51:21.144Z,5.93
2022-08-24T15:55:48.236Z,6.68
2022-08-24T16:00:44.592Z,6.13
2022-08-24T16:05:25.869Z,13.43
2022-08-24T16:09:48.461Z,5.97
2022-08-24T16:14:35.446Z,6.07
2022-08-24T16:19:08.633Z,8.00
2022-08-24T16:23:31.965Z,6.03
2022-08-24T16:28:05.549Z,6.35
2022-08-24T16:32:50.126Z,6.07
2022-08-24T16:37:19.964Z,5.25
2022-08-24T16:41:43.404Z,6.32
2022-08-24T16:46:08.766Z,5.80
2022-08-24T16:50:31.068Z,6.18
2022-08-24T16:54:53.155Z,6.18
2022-08-24T16:59:26.965Z,5.50
2022-08-24T17:03:49.165Z,8.73
2022-08-24T17:08:13.104Z,6.30
2022-08-24T17:12:37.464Z,6.35
2022-08-24T17:17:00.151Z,5.63
2022-08-24T17:21:23.584Z,6.30
2022-08-24T17:25:45.964Z,5.97
2022-08-24T17:30:09.905Z,5.65
2022-08-24T17:34:32.644Z,5.88
2022-08-24T17:38:57.464Z,6.28
2022-08-24T17:43:20.144Z,8.00
2022-08-24T17:47:43.997Z,7.97
2022-08-24T17:52:07.004Z,5.68
2022-08-24T17:56:40.978Z,5.95
2022-08-24T18:01:03.692Z,5.38
2022-08-24T18:05:26.685Z,6.05
2022-08-24T18:09:56.301Z,6.22
2022-08-24T18:14:19.184Z,6.25
2022-08-24T18:18:41.647Z,35.47
2022-08-24T18:23:04.242Z,8.10
2022-08-24T18:27:32.924Z,7.32
2022-08-24T18:31:56.386Z,8.02
2022-08-24T18:36:19.046Z,7.75
2022-08-24T18:40:52.156Z,7.13
2022-08-24T18:45:14.897Z,13.93
2022-08-24T18:49:37.905Z,8.13
2022-08-24T18:54:05.784Z,7.32
2022-08-24T18:58:28.358Z,7.97
2022-08-24T19:02:50.824Z,8.98
2022-08-24T19:07:14.325Z,9.20
2022-08-24T19:11:37.164Z,8.50
2022-08-24T19:16:00.001Z,8.75
2022-08-24T19:20:22.246Z,8.68
2022-08-24T19:24:46.604Z,8.75
2022-08-24T19:29:09.184Z,9.10
2022-08-24T19:33:37.566Z,10.07
2022-08-24T19:38:00.284Z,9.70
2022-08-24T19:42:24.137Z,12.20
2022-08-24T19:46:47.878Z,11.35
2022-08-24T19:51:14.237Z,10.77
2022-08-24T19:55:37.040Z,11.70
2022-08-24T20:00:19.705Z,11.25
2022-08-24T20:04:42.205Z,18.42
2022-08-24T20:09:05.766Z,17.88
2022-08-24T20:13:28.569Z,15.98
2022-08-24T20:17:52.405Z,12.55
2022-08-24T20:22:14.964Z,12.75
2022-08-24T20:26:43.705Z,13.25
2022-08-24T20:31:07.736Z,12.80
2022-08-24T20:35:30.725Z,13.30
2022-08-24T20:39:58.023Z,16.52
2022-08-24T20:44:20.986Z,14.35
2022-08-24T20:48:45.646Z,16.55
2022-08-24T20:53:18.305Z,14.68
2022-08-24T20:57:53.105Z,15.80
2022-08-24T21:02:15.705Z,16.92
2022-08-24T21:06:41.873Z,17.17
2022-08-24T21:11:04.645Z,17.10
2022-08-24T21:15:27.939Z,17.45
2022-08-24T21:19:50.577Z,18.50
2022-08-24T21:24:13.326Z,19.38
2022-08-24T21:28:37.545Z,18.80
2022-08-24T21:33:21.426Z,18.27
2022-08-24T21:37:48.345Z,18.65
2022-08-24T21:42:11.605Z,19.85
2022-08-24T21:46:38.545Z,20.67
2022-08-24T21:51:00.885Z,21.13
2022-08-24T21:55:23.445Z,20.60
2022-08-24T21:59:45.827Z,21.45
2022-08-24T22:04:11.925Z,23.77
2022-08-24T22:08:34.925Z,23.17
2022-08-24T22:13:02.072Z,22.80
2022-08-24T22:17:26.484Z,23.70
2022-08-24T22:21:49.365Z,23.63
2022-08-24T22:26:12.125Z,24.92
2022-08-24T22:30:34.864Z,25.65
2022-08-24T22:34:57.364Z,25.00
2022-08-24T22:39:19.751Z,25.77
2022-08-24T22:44:00.943Z,26.85
2022-08-24T22:48:23.343Z,26.55
2022-08-24T22:52:48.926Z,25.35
2022-08-24T22:57:11.422Z,27.48
2022-08-24T23:01:42.801Z,27.02
2022-08-24T23:06:06.344Z,26.98
2022-08-24T23:10:28.844Z,25.85
2022-08-24T23:14:52.976Z,28.55
2022-08-24T23:19:40.944Z,30.13
2022-08-24T23:24:04.303Z,29.65
2022-08-24T23:28:26.544Z,28.90
2022-08-24T23:32:49.284Z,27.92
2022-08-24T23:37:11.498Z,31.80
2022-08-24T23:41:38.449Z,34.38
2022-08-24T23:46:01.036Z,32.00
2022-08-24T23:50:23.464Z,30.83
2022-08-24T23:54:45.763Z,31.00
2022-08-24T23:59:19.644Z,32.47
